Phoenicia, NY (12464)

6:18 PM EST on February 09, 2016 (GMT -0500)
Woodland Valley | | Change Station
CLOSE
Current Station
Personal Weather Station
Location: Phoenicia, NY
Elevation: 1240 ft
Nearby Weather Stations

Elev 1240 ft 42.04 °N, 74.34 °W | Updated 3 seconds ago

Overcast
Overcast
27.0 °F
Feels Like 27 °F
N
0.0
Wind Variable Wind from East
Gusts 0.0 mph

Today
High -- | Low -- °F
--% Chance of Precip.
Yesterday
High -- | Low -- °F
Precip. -- in
Pressure 29.53 in
Visibility 10.0 miles
Clouds Scattered Clouds 4000 ft
Windchill 27 °F
Dew Point 23 °F
Humidity 84%
Rainfall 0.00 in
Snow Depth Not available.
7:01 AM 5:21 PM
New Moon, 2% visible
METAR KMSV 092315Z AUTO 00000KT 10SM SCT040 M02/M04 A2953 RMK AO1
Pressure 29.53 in
Visibility 10.0 miles
Clouds Scattered Clouds 4000 ft
Windchill 27 °F
Dew Point 23 °F
Humidity 84%
Rainfall 0.00 in
Snow Depth Not available.
7:01 AM 5:21 PM
New Moon, 2% visible
METAR KMSV 092315Z AUTO 00000KT 10SM SCT040 M02/M04 A2953 RMK AO1

10-Day Weather Forecast

Almanac

Astronomy

Feb. 09, 2016 Rise Set
Actual Time
Civil Twilight
Nautical Twilight
Astronomical Twilight
Moon
Length of Visible Light
Length of Day
Tomorrow will be .
, % of the Moon is Illuminated

Today's Extremes

State Highs State Lows

Community

WunderPhotos

Upload Photos

1,891,728 photos uploaded!

WunderBlog® & News

Nearby

Air Quality

  Air Quality AQ Index Pollutant
Not available.

Snow Depth

Station Depth Elevation

Earthquake Activity

City Distance Mag. Time & Date
Minimum magnitude displayed is 2.5.

Coastal Water Temperatures

Place Temperature

Stations

Nearby Weather Stations

Station Location Temp. Windchill Dew Point Humidity Wind Precip. Elev Updated Type
                   

Watches & Warnings

There are currently no watches in effect.